sensor_id;sensor_type;location;lat;lon;timestamp;P1;durP1;ratioP1;P2;durP2;ratioP2
21810;SDS011;11067;48.788;9.208;2023-03-21T00:00:29;7.07;;;4.65;;
21810;SDS011;11067;48.788;9.208;2023-03-21T00:02:55;8.25;;;4.93;;
21810;SDS011;11067;48.788;9.208;2023-03-21T00:05:21;8.15;;;4.50;;
21810;SDS011;11067;48.788;9.208;2023-03-21T00:07:47;8.20;;;4.90;;
21810;SDS011;11067;48.788;9.208;2023-03-21T00:10:12;6.33;;;4.10;;
21810;SDS011;11067;48.788;9.208;2023-03-21T00:12:38;6.87;;;4.60;;
21810;SDS011;11067;48.788;9.208;2023-03-21T00:15:04;6.85;;;4.22;;
21810;SDS011;11067;48.788;9.208;2023-03-21T00:17:31;6.75;;;3.97;;
21810;SDS011;11067;48.788;9.208;2023-03-21T00:19:58;6.28;;;4.15;;
21810;SDS011;11067;48.788;9.208;2023-03-21T00:22:24;7.15;;;4.68;;
21810;SDS011;11067;48.788;9.208;2023-03-21T00:24:51;7.05;;;4.43;;
21810;SDS011;11067;48.788;9.208;2023-03-21T00:27:17;6.13;;;4.30;;
21810;SDS011;11067;48.788;9.208;2023-03-21T00:29:46;6.13;;;4.22;;
21810;SDS011;11067;48.788;9.208;2023-03-21T00:32:13;6.83;;;4.37;;
21810;SDS011;11067;48.788;9.208;2023-03-21T00:34:42;7.22;;;4.22;;
21810;SDS011;11067;48.788;9.208;2023-03-21T00:37:08;8.50;;;4.95;;
21810;SDS011;11067;48.788;9.208;2023-03-21T00:39:36;7.47;;;4.70;;
21810;SDS011;11067;48.788;9.208;2023-03-21T00:42:02;8.05;;;4.22;;
21810;SDS011;11067;48.788;9.208;2023-03-21T00:44:27;6.97;;;4.60;;
21810;SDS011;11067;48.788;9.208;2023-03-21T00:46:53;7.13;;;4.30;;
21810;SDS011;11067;48.788;9.208;2023-03-21T00:49:19;7.67;;;4.23;;
21810;SDS011;11067;48.788;9.208;2023-03-21T00:51:45;6.40;;;4.27;;
21810;SDS011;11067;48.788;9.208;2023-03-21T00:54:15;6.45;;;4.18;;
21810;SDS011;11067;48.788;9.208;2023-03-21T00:56:41;5.28;;;3.92;;
21810;SDS011;11067;48.788;9.208;2023-03-21T00:59:06;7.50;;;3.63;;
21810;SDS011;11067;48.788;9.208;2023-03-21T01:01:32;7.67;;;3.97;;
21810;SDS011;11067;48.788;9.208;2023-03-21T01:03:57;9.10;;;4.10;;
21810;SDS011;11067;48.788;9.208;2023-03-21T01:06:35;6.30;;;3.90;;
21810;SDS011;11067;48.788;9.208;2023-03-21T01:09:05;5.90;;;3.72;;
21810;SDS011;11067;48.788;9.208;2023-03-21T01:11:36;5.03;;;3.80;;
21810;SDS011;11067;48.788;9.208;2023-03-21T01:14:02;7.67;;;3.83;;
21810;SDS011;11067;48.788;9.208;2023-03-21T01:16:27;4.90;;;3.63;;
21810;SDS011;11067;48.788;9.208;2023-03-21T01:18:53;5.47;;;3.67;;
21810;SDS011;11067;48.788;9.208;2023-03-21T01:21:19;8.70;;;4.00;;
21810;SDS011;11067;48.788;9.208;2023-03-21T01:23:44;5.22;;;3.00;;
21810;SDS011;11067;48.788;9.208;2023-03-21T01:26:10;4.30;;;2.90;;
21810;SDS011;11067;48.788;9.208;2023-03-21T01:28:37;8.03;;;3.10;;
21810;SDS011;11067;48.788;9.208;2023-03-21T01:31:04;5.32;;;3.15;;
21810;SDS011;11067;48.788;9.208;2023-03-21T01:33:31;4.18;;;3.10;;
21810;SDS011;11067;48.788;9.208;2023-03-21T01:35:58;6.22;;;3.47;;
21810;SDS011;11067;48.788;9.208;2023-03-21T01:38:24;6.50;;;3.70;;
21810;SDS011;11067;48.788;9.208;2023-03-21T01:40:50;5.30;;;3.50;;
21810;SDS011;11067;48.788;9.208;2023-03-21T01:43:26;9.40;;;3.65;;
21810;SDS011;11067;48.788;9.208;2023-03-21T01:48:35;6.13;;;3.30;;
21810;SDS011;11067;48.788;9.208;2023-03-21T01:51:03;5.88;;;3.60;;
21810;SDS011;11067;48.788;9.208;2023-03-21T01:53:29;5.65;;;3.25;;
21810;SDS011;11067;48.788;9.208;2023-03-21T01:55:58;4.40;;;3.17;;
21810;SDS011;11067;48.788;9.208;2023-03-21T01:58:27;6.43;;;3.65;;
21810;SDS011;11067;48.788;9.208;2023-03-21T02:00:53;6.05;;;3.20;;
21810;SDS011;11067;48.788;9.208;2023-03-21T02:03:20;5.75;;;3.50;;
21810;SDS011;11067;48.788;9.208;2023-03-21T02:08:25;5.53;;;3.38;;
21810;SDS011;11067;48.788;9.208;2023-03-21T02:10:52;5.53;;;3.53;;
21810;SDS011;11067;48.788;9.208;2023-03-21T02:13:18;6.93;;;3.60;;
21810;SDS011;11067;48.788;9.208;2023-03-21T02:15:45;4.67;;;3.33;;
21810;SDS011;11067;48.788;9.208;2023-03-21T02:21:46;5.20;;;3.35;;
21810;SDS011;11067;48.788;9.208;2023-03-21T02:24:38;4.40;;;3.07;;
21810;SDS011;11067;48.788;9.208;2023-03-21T02:27:20;5.17;;;3.30;;
21810;SDS011;11067;48.788;9.208;2023-03-21T02:35:14;5.93;;;3.17;;
21810;SDS011;11067;48.788;9.208;2023-03-21T02:38:10;6.05;;;3.50;;
21810;SDS011;11067;48.788;9.208;2023-03-21T02:40:51;5.50;;;3.15;;
21810;SDS011;11067;48.788;9.208;2023-03-21T02:43:24;4.77;;;3.37;;
21810;SDS011;11067;48.788;9.208;2023-03-21T02:45:57;6.63;;;3.47;;
21810;SDS011;11067;48.788;9.208;2023-03-21T02:48:42;4.55;;;3.22;;
21810;SDS011;11067;48.788;9.208;2023-03-21T02:51:16;4.50;;;3.20;;
21810;SDS011;11067;48.788;9.208;2023-03-21T02:53:47;4.05;;;3.00;;
21810;SDS011;11067;48.788;9.208;2023-03-21T02:56:16;5.65;;;3.20;;
21810;SDS011;11067;48.788;9.208;2023-03-21T02:58:44;3.80;;;3.03;;
21810;SDS011;11067;48.788;9.208;2023-03-21T03:01:10;5.82;;;3.00;;
21810;SDS011;11067;48.788;9.208;2023-03-21T03:03:36;5.83;;;3.50;;
21810;SDS011;11067;48.788;9.208;2023-03-21T03:06:06;4.22;;;2.88;;
21810;SDS011;11067;48.788;9.208;2023-03-21T03:11:25;4.68;;;3.05;;
21810;SDS011;11067;48.788;9.208;2023-03-21T03:18:55;8.35;;;3.88;;
21810;SDS011;11067;48.788;9.208;2023-03-21T03:21:46;4.90;;;3.00;;
21810;SDS011;11067;48.788;9.208;2023-03-21T03:29:34;4.68;;;2.90;;
21810;SDS011;11067;48.788;9.208;2023-03-21T03:32:16;4.47;;;3.20;;
21810;SDS011;11067;48.788;9.208;2023-03-21T03:34:49;4.05;;;3.05;;
21810;SDS011;11067;48.788;9.208;2023-03-21T03:37:20;4.47;;;3.03;;
21810;SDS011;11067;48.788;9.208;2023-03-21T03:40:07;4.73;;;3.27;;
21810;SDS011;11067;48.788;9.208;2023-03-21T03:42:51;4.97;;;3.22;;
21810;SDS011;11067;48.788;9.208;2023-03-21T03:45:18;5.95;;;2.97;;
21810;SDS011;11067;48.788;9.208;2023-03-21T03:47:48;3.40;;;2.80;;
21810;SDS011;11067;48.788;9.208;2023-03-21T03:50:25;4.03;;;2.90;;
21810;SDS011;11067;48.788;9.208;2023-03-21T03:53:14;5.53;;;3.13;;
21810;SDS011;11067;48.788;9.208;2023-03-21T03:56:01;6.53;;;3.40;;
21810;SDS011;11067;48.788;9.208;2023-03-21T03:58:28;4.78;;;3.10;;
21810;SDS011;11067;48.788;9.208;2023-03-21T04:00:55;5.03;;;2.95;;
21810;SDS011;11067;48.788;9.208;2023-03-21T04:03:20;4.60;;;3.03;;
21810;SDS011;11067;48.788;9.208;2023-03-21T04:05:46;4.28;;;2.95;;
21810;SDS011;11067;48.788;9.208;2023-03-21T04:08:13;6.15;;;3.10;;
21810;SDS011;11067;48.788;9.208;2023-03-21T04:10:40;5.75;;;3.20;;
21810;SDS011;11067;48.788;9.208;2023-03-21T04:13:06;3.95;;;2.80;;
21810;SDS011;11067;48.788;9.208;2023-03-21T04:15:33;7.13;;;3.53;;
21810;SDS011;11067;48.788;9.208;2023-03-21T04:17:59;4.30;;;2.88;;
21810;SDS011;11067;48.788;9.208;2023-03-21T04:20:24;7.15;;;2.97;;
21810;SDS011;11067;48.788;9.208;2023-03-21T04:22:50;5.95;;;3.17;;
21810;SDS011;11067;48.788;9.208;2023-03-21T04:25:16;5.07;;;3.08;;
21810;SDS011;11067;48.788;9.208;2023-03-21T04:27:41;5.32;;;3.20;;
21810;SDS011;11067;48.788;9.208;2023-03-21T04:30:07;6.13;;;3.23;;
21810;SDS011;11067;48.788;9.208;2023-03-21T04:32:36;4.73;;;3.27;;
21810;SDS011;11067;48.788;9.208;2023-03-21T04:35:03;5.97;;;3.30;;
21810;SDS011;11067;48.788;9.208;2023-03-21T04:37:33;4.63;;;3.20;;
21810;SDS011;11067;48.788;9.208;2023-03-21T04:39:59;6.88;;;3.30;;
21810;SDS011;11067;48.788;9.208;2023-03-21T04:42:30;5.00;;;3.08;;
21810;SDS011;11067;48.788;9.208;2023-03-21T04:44:56;5.53;;;3.20;;
21810;SDS011;11067;48.788;9.208;2023-03-21T04:47:22;5.85;;;3.25;;
21810;SDS011;11067;48.788;9.208;2023-03-21T04:49:48;4.45;;;3.05;;
21810;SDS011;11067;48.788;9.208;2023-03-21T04:52:13;4.25;;;3.33;;
21810;SDS011;11067;48.788;9.208;2023-03-21T04:54:39;11.45;;;3.80;;
21810;SDS011;11067;48.788;9.208;2023-03-21T04:57:05;7.00;;;3.50;;
21810;SDS011;11067;48.788;9.208;2023-03-21T04:59:31;4.63;;;3.30;;
21810;SDS011;11067;48.788;9.208;2023-03-21T05:01:58;7.70;;;3.20;;
21810;SDS011;11067;48.788;9.208;2023-03-21T05:04:24;9.52;;;3.42;;
21810;SDS011;11067;48.788;9.208;2023-03-21T05:06:51;5.30;;;3.05;;
21810;SDS011;11067;48.788;9.208;2023-03-21T05:09:17;6.10;;;3.65;;
21810;SDS011;11067;48.788;9.208;2023-03-21T05:11:42;4.30;;;3.10;;
21810;SDS011;11067;48.788;9.208;2023-03-21T05:14:09;8.27;;;3.40;;
21810;SDS011;11067;48.788;9.208;2023-03-21T05:16:38;9.30;;;4.60;;
21810;SDS011;11067;48.788;9.208;2023-03-21T05:19:09;6.70;;;3.80;;
21810;SDS011;11067;48.788;9.208;2023-03-21T05:21:37;7.78;;;3.88;;
21810;SDS011;11067;48.788;9.208;2023-03-21T05:24:08;8.70;;;3.45;;
21810;SDS011;11067;48.788;9.208;2023-03-21T05:26:38;6.60;;;3.85;;
21810;SDS011;11067;48.788;9.208;2023-03-21T05:29:04;7.70;;;4.28;;
21810;SDS011;11067;48.788;9.208;2023-03-21T05:31:30;5.05;;;3.28;;
21810;SDS011;11067;48.788;9.208;2023-03-21T05:33:56;5.43;;;3.80;;
21810;SDS011;11067;48.788;9.208;2023-03-21T05:36:22;4.80;;;3.33;;
21810;SDS011;11067;48.788;9.208;2023-03-21T05:38:48;6.95;;;4.30;;
21810;SDS011;11067;48.788;9.208;2023-03-21T05:41:13;6.40;;;3.97;;
21810;SDS011;11067;48.788;9.208;2023-03-21T05:43:40;4.70;;;3.03;;
21810;SDS011;11067;48.788;9.208;2023-03-21T05:46:06;4.85;;;3.30;;
21810;SDS011;11067;48.788;9.208;2023-03-21T05:48:33;6.40;;;3.43;;
21810;SDS011;11067;48.788;9.208;2023-03-21T05:50:59;6.85;;;3.25;;
21810;SDS011;11067;48.788;9.208;2023-03-21T05:53:25;6.83;;;3.83;;
21810;SDS011;11067;48.788;9.208;2023-03-21T05:55:51;5.97;;;3.87;;
21810;SDS011;11067;48.788;9.208;2023-03-21T05:58:17;5.37;;;3.60;;
21810;SDS011;11067;48.788;9.208;2023-03-21T06:00:42;5.77;;;3.57;;
21810;SDS011;11067;48.788;9.208;2023-03-21T06:03:08;5.93;;;3.67;;
21810;SDS011;11067;48.788;9.208;2023-03-21T06:05:33;4.55;;;3.47;;
21810;SDS011;11067;48.788;9.208;2023-03-21T06:07:59;6.30;;;3.60;;
21810;SDS011;11067;48.788;9.208;2023-03-21T06:10:25;5.32;;;3.88;;
21810;SDS011;11067;48.788;9.208;2023-03-21T06:12:50;4.73;;;3.90;;
21810;SDS011;11067;48.788;9.208;2023-03-21T06:15:16;6.07;;;3.50;;
21810;SDS011;11067;48.788;9.208;2023-03-21T06:17:41;5.40;;;3.60;;
21810;SDS011;11067;48.788;9.208;2023-03-21T06:20:07;6.95;;;4.03;;
21810;SDS011;11067;48.788;9.208;2023-03-21T06:22:35;5.38;;;3.78;;
21810;SDS011;11067;48.788;9.208;2023-03-21T06:25:01;5.85;;;3.70;;
21810;SDS011;11067;48.788;9.208;2023-03-21T06:27:28;7.95;;;4.20;;
21810;SDS011;11067;48.788;9.208;2023-03-21T06:29:53;8.35;;;4.18;;
21810;SDS011;11067;48.788;9.208;2023-03-21T06:32:19;13.70;;;4.68;;
21810;SDS011;11067;48.788;9.208;2023-03-21T06:34:44;7.23;;;4.40;;
21810;SDS011;11067;48.788;9.208;2023-03-21T06:37:11;8.65;;;4.32;;
21810;SDS011;11067;48.788;9.208;2023-03-21T06:39:36;6.80;;;3.90;;
21810;SDS011;11067;48.788;9.208;2023-03-21T06:42:02;9.57;;;4.20;;
21810;SDS011;11067;48.788;9.208;2023-03-21T06:44:27;9.10;;;4.57;;
21810;SDS011;11067;48.788;9.208;2023-03-21T06:46:53;7.47;;;4.23;;
21810;SDS011;11067;48.788;9.208;2023-03-21T06:49:19;8.97;;;4.27;;
21810;SDS011;11067;48.788;9.208;2023-03-21T06:51:45;8.00;;;4.70;;
21810;SDS011;11067;48.788;9.208;2023-03-21T06:54:10;9.30;;;4.70;;
21810;SDS011;11067;48.788;9.208;2023-03-21T06:56:38;10.70;;;5.32;;
21810;SDS011;11067;48.788;9.208;2023-03-21T06:59:04;10.60;;;5.10;;
21810;SDS011;11067;48.788;9.208;2023-03-21T07:01:30;9.40;;;5.53;;
21810;SDS011;11067;48.788;9.208;2023-03-21T07:03:56;7.60;;;4.53;;
21810;SDS011;11067;48.788;9.208;2023-03-21T07:06:24;9.43;;;5.32;;
21810;SDS011;11067;48.788;9.208;2023-03-21T07:08:50;7.30;;;4.73;;
21810;SDS011;11067;48.788;9.208;2023-03-21T07:11:17;11.68;;;5.38;;
21810;SDS011;11067;48.788;9.208;2023-03-21T07:13:44;6.25;;;4.40;;
21810;SDS011;11067;48.788;9.208;2023-03-21T07:16:10;10.32;;;4.40;;
21810;SDS011;11067;48.788;9.208;2023-03-21T07:18:35;8.73;;;4.80;;
21810;SDS011;11067;48.788;9.208;2023-03-21T07:21:02;9.50;;;5.13;;
21810;SDS011;11067;48.788;9.208;2023-03-21T07:23:28;6.77;;;4.70;;
21810;SDS011;11067;48.788;9.208;2023-03-21T07:25:54;7.53;;;4.10;;
21810;SDS011;11067;48.788;9.208;2023-03-21T07:28:20;8.82;;;4.45;;
21810;SDS011;11067;48.788;9.208;2023-03-21T07:30:50;9.07;;;5.18;;
21810;SDS011;11067;48.788;9.208;2023-03-21T07:33:18;7.55;;;4.60;;
21810;SDS011;11067;48.788;9.208;2023-03-21T07:35:44;7.77;;;4.63;;
21810;SDS011;11067;48.788;9.208;2023-03-21T07:38:10;9.57;;;5.43;;
21810;SDS011;11067;48.788;9.208;2023-03-21T07:40:36;6.82;;;4.68;;
21810;SDS011;11067;48.788;9.208;2023-03-21T07:43:01;7.33;;;4.73;;
21810;SDS011;11067;48.788;9.208;2023-03-21T07:45:27;9.02;;;4.88;;
21810;SDS011;11067;48.788;9.208;2023-03-21T07:47:53;10.55;;;4.97;;
21810;SDS011;11067;48.788;9.208;2023-03-21T07:50:18;10.68;;;5.15;;
21810;SDS011;11067;48.788;9.208;2023-03-21T07:52:44;16.17;;;5.13;;
21810;SDS011;11067;48.788;9.208;2023-03-21T07:55:10;9.50;;;4.75;;
21810;SDS011;11067;48.788;9.208;2023-03-21T07:57:36;8.18;;;4.90;;
21810;SDS011;11067;48.788;9.208;2023-03-21T08:00:02;7.93;;;4.50;;
21810;SDS011;11067;48.788;9.208;2023-03-21T08:02:29;6.35;;;4.38;;
21810;SDS011;11067;48.788;9.208;2023-03-21T08:04:55;8.63;;;4.43;;
21810;SDS011;11067;48.788;9.208;2023-03-21T08:07:21;10.77;;;4.40;;
21810;SDS011;11067;48.788;9.208;2023-03-21T08:09:46;13.47;;;4.43;;
21810;SDS011;11067;48.788;9.208;2023-03-21T08:12:12;9.03;;;4.50;;
21810;SDS011;11067;48.788;9.208;2023-03-21T08:14:38;9.93;;;4.87;;
21810;SDS011;11067;48.788;9.208;2023-03-21T08:17:04;9.60;;;5.22;;
21810;SDS011;11067;48.788;9.208;2023-03-21T08:19:30;8.35;;;5.00;;
21810;SDS011;11067;48.788;9.208;2023-03-21T08:21:56;10.02;;;4.88;;
21810;SDS011;11067;48.788;9.208;2023-03-21T08:24:25;7.65;;;4.60;;
21810;SDS011;11067;48.788;9.208;2023-03-21T08:26:52;8.38;;;4.70;;
21810;SDS011;11067;48.788;9.208;2023-03-21T08:29:18;10.02;;;4.40;;
21810;SDS011;11067;48.788;9.208;2023-03-21T08:31:45;8.43;;;3.90;;
21810;SDS011;11067;48.788;9.208;2023-03-21T08:34:11;8.55;;;4.38;;
21810;SDS011;11067;48.788;9.208;2023-03-21T08:36:37;6.93;;;3.87;;
21810;SDS011;11067;48.788;9.208;2023-03-21T08:39:04;8.00;;;4.30;;
21810;SDS011;11067;48.788;9.208;2023-03-21T08:41:33;8.47;;;4.20;;
21810;SDS011;11067;48.788;9.208;2023-03-21T08:44:00;6.68;;;3.70;;
21810;SDS011;11067;48.788;9.208;2023-03-21T08:46:26;4.65;;;3.75;;
21810;SDS011;11067;48.788;9.208;2023-03-21T08:48:52;6.32;;;3.55;;
21810;SDS011;11067;48.788;9.208;2023-03-21T08:51:18;6.40;;;3.60;;
21810;SDS011;11067;48.788;9.208;2023-03-21T08:53:44;6.00;;;3.40;;
21810;SDS011;11067;48.788;9.208;2023-03-21T08:56:10;4.50;;;3.37;;
21810;SDS011;11067;48.788;9.208;2023-03-21T08:58:35;6.13;;;3.40;;
21810;SDS011;11067;48.788;9.208;2023-03-21T09:01:02;5.10;;;3.53;;
21810;SDS011;11067;48.788;9.208;2023-03-21T09:03:28;5.38;;;3.50;;
21810;SDS011;11067;48.788;9.208;2023-03-21T09:05:54;4.40;;;3.60;;
21810;SDS011;11067;48.788;9.208;2023-03-21T09:08:20;5.55;;;3.47;;
21810;SDS011;11067;48.788;9.208;2023-03-21T09:10:47;5.63;;;3.50;;
21810;SDS011;11067;48.788;9.208;2023-03-21T09:13:14;5.83;;;3.40;;
21810;SDS011;11067;48.788;9.208;2023-03-21T09:15:39;5.13;;;3.33;;
21810;SDS011;11067;48.788;9.208;2023-03-21T09:18:05;5.63;;;3.50;;
21810;SDS011;11067;48.788;9.208;2023-03-21T09:20:37;6.43;;;3.33;;
21810;SDS011;11067;48.788;9.208;2023-03-21T09:23:03;5.25;;;3.15;;
21810;SDS011;11067;48.788;9.208;2023-03-21T09:25:29;6.87;;;2.87;;
21810;SDS011;11067;48.788;9.208;2023-03-21T09:27:54;6.13;;;3.20;;
21810;SDS011;11067;48.788;9.208;2023-03-21T09:30:22;4.45;;;3.13;;
21810;SDS011;11067;48.788;9.208;2023-03-21T09:32:47;5.87;;;3.00;;
21810;SDS011;11067;48.788;9.208;2023-03-21T09:35:17;5.93;;;3.10;;
21810;SDS011;11067;48.788;9.208;2023-03-21T09:37:44;7.70;;;2.92;;
21810;SDS011;11067;48.788;9.208;2023-03-21T09:40:15;4.80;;;2.60;;
21810;SDS011;11067;48.788;9.208;2023-03-21T09:42:50;8.07;;;3.08;;
21810;SDS011;11067;48.788;9.208;2023-03-21T09:47:59;5.13;;;2.72;;
21810;SDS011;11067;48.788;9.208;2023-03-21T09:50:25;6.20;;;2.80;;
21810;SDS011;11067;48.788;9.208;2023-03-21T09:52:56;4.72;;;2.45;;
21810;SDS011;11067;48.788;9.208;2023-03-21T09:55:30;4.13;;;2.30;;
21810;SDS011;11067;48.788;9.208;2023-03-21T09:58:01;3.72;;;2.38;;
21810;SDS011;11067;48.788;9.208;2023-03-21T10:00:50;2.63;;;2.13;;
21810;SDS011;11067;48.788;9.208;2023-03-21T10:03:21;4.40;;;2.30;;
21810;SDS011;11067;48.788;9.208;2023-03-21T10:05:51;7.10;;;2.70;;
21810;SDS011;11067;48.788;9.208;2023-03-21T10:08:23;7.30;;;2.58;;
21810;SDS011;11067;48.788;9.208;2023-03-21T10:13:45;4.10;;;2.25;;
21810;SDS011;11067;48.788;9.208;2023-03-21T10:16:27;3.95;;;2.53;;
21810;SDS011;11067;48.788;9.208;2023-03-21T10:18:59;7.75;;;2.42;;
21810;SDS011;11067;48.788;9.208;2023-03-21T10:21:29;3.72;;;2.10;;
21810;SDS011;11067;48.788;9.208;2023-03-21T10:23:56;6.18;;;2.80;;
21810;SDS011;11067;48.788;9.208;2023-03-21T10:26:24;3.77;;;2.40;;
21810;SDS011;11067;48.788;9.208;2023-03-21T10:28:56;4.25;;;2.45;;
21810;SDS011;11067;48.788;9.208;2023-03-21T10:31:25;3.70;;;2.25;;
21810;SDS011;11067;48.788;9.208;2023-03-21T10:33:55;5.55;;;2.30;;
21810;SDS011;11067;48.788;9.208;2023-03-21T10:36:24;4.57;;;2.08;;
21810;SDS011;11067;48.788;9.208;2023-03-21T10:38:55;3.20;;;2.20;;
21810;SDS011;11067;48.788;9.208;2023-03-21T10:41:25;4.50;;;2.13;;
21810;SDS011;11067;48.788;9.208;2023-03-21T10:44:05;2.17;;;1.90;;
21810;SDS011;11067;48.788;9.208;2023-03-21T10:46:30;4.43;;;2.27;;
21810;SDS011;11067;48.788;9.208;2023-03-21T10:48:57;3.33;;;2.03;;
21810;SDS011;11067;48.788;9.208;2023-03-21T10:51:27;3.97;;;2.40;;
21810;SDS011;11067;48.788;9.208;2023-03-21T10:54:00;4.93;;;2.47;;
21810;SDS011;11067;48.788;9.208;2023-03-21T10:56:31;3.17;;;1.90;;
21810;SDS011;11067;48.788;9.208;2023-03-21T10:59:01;5.07;;;2.00;;
21810;SDS011;11067;48.788;9.208;2023-03-21T11:01:36;3.63;;;1.80;;
21810;SDS011;11067;48.788;9.208;2023-03-21T11:04:15;2.92;;;1.75;;
21810;SDS011;11067;48.788;9.208;2023-03-21T11:06:50;3.07;;;1.97;;
21810;SDS011;11067;48.788;9.208;2023-03-21T11:09:24;2.63;;;2.00;;
21810;SDS011;11067;48.788;9.208;2023-03-21T11:12:10;2.73;;;1.67;;
21810;SDS011;11067;48.788;9.208;2023-03-21T11:14:49;2.20;;;1.80;;
21810;SDS011;11067;48.788;9.208;2023-03-21T11:19:50;3.83;;;1.53;;
21810;SDS011;11067;48.788;9.208;2023-03-21T11:22:19;2.75;;;1.70;;
21810;SDS011;11067;48.788;9.208;2023-03-21T11:24:52;4.70;;;1.90;;
21810;SDS011;11067;48.788;9.208;2023-03-21T11:27:23;2.97;;;1.90;;
21810;SDS011;11067;48.788;9.208;2023-03-21T11:29:53;2.88;;;1.80;;
21810;SDS011;11067;48.788;9.208;2023-03-21T11:32:34;3.10;;;1.70;;
21810;SDS011;11067;48.788;9.208;2023-03-21T11:37:53;1.77;;;1.50;;
21810;SDS011;11067;48.788;9.208;2023-03-21T11:40:25;4.28;;;1.67;;
21810;SDS011;11067;48.788;9.208;2023-03-21T11:45:29;2.25;;;2.05;;
21810;SDS011;11067;48.788;9.208;2023-03-21T11:47:58;3.75;;;1.88;;
21810;SDS011;11067;48.788;9.208;2023-03-21T11:50:27;3.80;;;2.00;;
21810;SDS011;11067;48.788;9.208;2023-03-21T11:53:04;2.42;;;1.50;;
21810;SDS011;11067;48.788;9.208;2023-03-21T11:58:36;3.63;;;1.65;;
21810;SDS011;11067;48.788;9.208;2023-03-21T12:04:06;2.83;;;1.98;;
21810;SDS011;11067;48.788;9.208;2023-03-21T12:07:30;12.90;;;2.00;;
21810;SDS011;11067;48.788;9.208;2023-03-21T12:10:03;3.85;;;1.92;;
21810;SDS011;11067;48.788;9.208;2023-03-21T12:15:23;3.13;;;2.15;;
21810;SDS011;11067;48.788;9.208;2023-03-21T12:18:01;4.10;;;2.28;;
21810;SDS011;11067;48.788;9.208;2023-03-21T12:20:29;5.20;;;2.50;;
21810;SDS011;11067;48.788;9.208;2023-03-21T12:23:11;5.57;;;2.40;;
21810;SDS011;11067;48.788;9.208;2023-03-21T12:28:34;4.95;;;2.55;;
21810;SDS011;11067;48.788;9.208;2023-03-21T12:31:36;4.88;;;2.38;;
21810;SDS011;11067;48.788;9.208;2023-03-21T12:37:31;2.70;;;2.05;;
21810;SDS011;11067;48.788;9.208;2023-03-21T12:40:25;4.68;;;2.47;;
21810;SDS011;11067;48.788;9.208;2023-03-21T12:45:47;4.20;;;2.17;;
21810;SDS011;11067;48.788;9.208;2023-03-21T12:48:21;4.80;;;2.40;;
21810;SDS011;11067;48.788;9.208;2023-03-21T12:50:54;4.57;;;2.70;;
21810;SDS011;11067;48.788;9.208;2023-03-21T12:55:47;3.25;;;2.22;;
21810;SDS011;11067;48.788;9.208;2023-03-21T12:58:14;3.00;;;2.30;;
21810;SDS011;11067;48.788;9.208;2023-03-21T13:00:43;3.17;;;2.23;;
21810;SDS011;11067;48.788;9.208;2023-03-21T13:03:19;7.25;;;2.80;;
21810;SDS011;11067;48.788;9.208;2023-03-21T13:06:09;6.50;;;2.80;;
21810;SDS011;11067;48.788;9.208;2023-03-21T13:08:59;9.63;;;2.50;;
21810;SDS011;11067;48.788;9.208;2023-03-21T13:11:30;3.65;;;2.22;;
21810;SDS011;11067;48.788;9.208;2023-03-21T13:14:10;3.30;;;2.30;;
21810;SDS011;11067;48.788;9.208;2023-03-21T13:16:51;6.00;;;2.60;;
21810;SDS011;11067;48.788;9.208;2023-03-21T13:19:27;2.47;;;2.00;;
21810;SDS011;11067;48.788;9.208;2023-03-21T13:22:27;5.07;;;2.47;;
21810;SDS011;11067;48.788;9.208;2023-03-21T13:24:58;3.58;;;2.42;;
21810;SDS011;11067;48.788;9.208;2023-03-21T13:27:29;4.20;;;2.70;;
21810;SDS011;11067;48.788;9.208;2023-03-21T13:38:03;4.25;;;2.00;;
21810;SDS011;11067;48.788;9.208;2023-03-21T13:40:50;3.50;;;2.10;;
21810;SDS011;11067;48.788;9.208;2023-03-21T13:54:15;2.83;;;1.90;;
21810;SDS011;11067;48.788;9.208;2023-03-21T13:57:03;4.28;;;2.08;;
21810;SDS011;11067;48.788;9.208;2023-03-21T13:59:43;3.50;;;2.00;;
21810;SDS011;11067;48.788;9.208;2023-03-21T14:04:37;4.22;;;2.25;;
21810;SDS011;11067;48.788;9.208;2023-03-21T14:07:06;4.65;;;2.75;;
21810;SDS011;11067;48.788;9.208;2023-03-21T14:09:38;2.83;;;1.85;;
21810;SDS011;11067;48.788;9.208;2023-03-21T14:12:06;5.63;;;2.75;;
21810;SDS011;11067;48.788;9.208;2023-03-21T14:14:56;4.95;;;2.30;;
21810;SDS011;11067;48.788;9.208;2023-03-21T14:17:29;4.70;;;2.10;;
21810;SDS011;11067;48.788;9.208;2023-03-21T14:19:58;3.07;;;2.20;;
21810;SDS011;11067;48.788;9.208;2023-03-21T14:22:38;5.63;;;2.13;;
21810;SDS011;11067;48.788;9.208;2023-03-21T14:25:06;4.70;;;2.20;;
21810;SDS011;11067;48.788;9.208;2023-03-21T14:27:37;5.13;;;2.15;;
21810;SDS011;11067;48.788;9.208;2023-03-21T14:30:05;4.90;;;2.55;;
21810;SDS011;11067;48.788;9.208;2023-03-21T14:32:35;4.97;;;2.40;;
21810;SDS011;11067;48.788;9.208;2023-03-21T14:35:02;7.47;;;3.13;;
21810;SDS011;11067;48.788;9.208;2023-03-21T14:37:32;6.20;;;2.70;;
21810;SDS011;11067;48.788;9.208;2023-03-21T14:40:02;4.10;;;2.70;;
21810;SDS011;11067;48.788;9.208;2023-03-21T14:42:34;3.90;;;2.60;;
21810;SDS011;11067;48.788;9.208;2023-03-21T14:45:10;6.97;;;2.40;;
21810;SDS011;11067;48.788;9.208;2023-03-21T14:47:40;4.07;;;2.15;;
21810;SDS011;11067;48.788;9.208;2023-03-21T14:50:08;4.43;;;2.47;;
21810;SDS011;11067;48.788;9.208;2023-03-21T14:52:35;3.53;;;2.30;;
21810;SDS011;11067;48.788;9.208;2023-03-21T14:55:04;4.53;;;2.25;;
21810;SDS011;11067;48.788;9.208;2023-03-21T14:57:39;7.13;;;2.35;;
21810;SDS011;11067;48.788;9.208;2023-03-21T15:00:06;4.90;;;2.67;;
21810;SDS011;11067;48.788;9.208;2023-03-21T15:02:40;4.40;;;2.28;;
21810;SDS011;11067;48.788;9.208;2023-03-21T15:05:14;4.20;;;2.40;;
21810;SDS011;11067;48.788;9.208;2023-03-21T15:07:41;4.93;;;2.50;;
21810;SDS011;11067;48.788;9.208;2023-03-21T15:10:16;5.35;;;2.53;;
21810;SDS011;11067;48.788;9.208;2023-03-21T15:12:55;3.42;;;2.00;;
21810;SDS011;11067;48.788;9.208;2023-03-21T15:15:23;4.60;;;2.47;;
21810;SDS011;11067;48.788;9.208;2023-03-21T15:17:50;4.93;;;2.37;;
21810;SDS011;11067;48.788;9.208;2023-03-21T15:20:18;4.72;;;2.38;;
21810;SDS011;11067;48.788;9.208;2023-03-21T15:22:47;5.30;;;2.38;;
21810;SDS011;11067;48.788;9.208;2023-03-21T15:25:16;5.13;;;2.40;;
21810;SDS011;11067;48.788;9.208;2023-03-21T15:27:47;6.32;;;2.58;;
21810;SDS011;11067;48.788;9.208;2023-03-21T15:30:18;4.88;;;2.00;;
21810;SDS011;11067;48.788;9.208;2023-03-21T15:32:46;5.05;;;1.77;;
21810;SDS011;11067;48.788;9.208;2023-03-21T15:35:13;3.75;;;2.10;;
21810;SDS011;11067;48.788;9.208;2023-03-21T15:37:41;3.67;;;2.10;;
21810;SDS011;11067;48.788;9.208;2023-03-21T15:40:15;3.35;;;2.08;;
21810;SDS011;11067;48.788;9.208;2023-03-21T15:42:44;2.88;;;1.65;;
21810;SDS011;11067;48.788;9.208;2023-03-21T15:45:14;4.05;;;1.90;;
21810;SDS011;11067;48.788;9.208;2023-03-21T15:53:02;4.33;;;2.23;;
21810;SDS011;11067;48.788;9.208;2023-03-21T15:58:22;5.80;;;2.20;;
21810;SDS011;11067;48.788;9.208;2023-03-21T16:00:51;6.55;;;2.30;;
21810;SDS011;11067;48.788;9.208;2023-03-21T16:03:22;2.80;;;1.70;;
21810;SDS011;11067;48.788;9.208;2023-03-21T16:06:16;4.82;;;2.25;;
21810;SDS011;11067;48.788;9.208;2023-03-21T16:08:46;2.93;;;2.30;;
21810;SDS011;11067;48.788;9.208;2023-03-21T16:13:48;5.30;;;2.55;;
21810;SDS011;11067;48.788;9.208;2023-03-21T16:16:19;5.05;;;2.45;;
21810;SDS011;11067;48.788;9.208;2023-03-21T16:18:47;3.90;;;2.70;;
21810;SDS011;11067;48.788;9.208;2023-03-21T16:21:13;5.47;;;2.70;;
21810;SDS011;11067;48.788;9.208;2023-03-21T16:23:42;3.90;;;2.37;;
21810;SDS011;11067;48.788;9.208;2023-03-21T16:26:11;5.70;;;2.60;;
21810;SDS011;11067;48.788;9.208;2023-03-21T16:28:40;4.40;;;2.45;;
21810;SDS011;11067;48.788;9.208;2023-03-21T16:31:08;4.72;;;2.10;;
21810;SDS011;11067;48.788;9.208;2023-03-21T16:33:37;5.73;;;2.70;;
21810;SDS011;11067;48.788;9.208;2023-03-21T16:36:03;5.00;;;2.80;;